Time;durP1;ratioP1;P1;durP2;ratioP2;P2;SDS_P1;SDS_P2;PMS_P1;PMS_P2;Temp;Humidity;BMP_temperature;BMP_pressure;BME280_temperature;BME280_humidity;BME280_pressure;Samples;Min_cycle;Max_cycle;Signal;HPM_P1;HPM_P2
2021/08/29 00:00:48;;;;;;;3.35;3.03;;;;;;;8.25;100.00;93215.38;2086151;28;20024;-85
2021/08/29 00:01:50;;;;;;;3.88;3.47;;;;;;;8.31;100.00;93221.03;2093692;28;20028;-86
2021/08/29 00:02:50;;;;;;;3.50;3.20;;;;;;;8.24;100.00;93213.09;2093751;28;20108;-85
2021/08/29 00:03:51;;;;;;;7.20;3.95;;;;;;;8.29;100.00;93223.31;2089104;28;20021;-87
2021/08/29 00:04:52;;;;;;;3.40;3.10;;;;;;;8.35;100.00;93219.06;2084774;28;20036;-84
2021/08/29 00:05:54;;;;;;;3.67;3.38;;;;;;;8.21;100.00;93216.56;2085360;28;20028;-86
2021/08/29 00:06:54;;;;;;;4.00;3.60;;;;;;;8.23;100.00;93216.94;2101582;27;20055;-88
2021/08/29 00:07:55;;;;;;;3.42;3.13;;;;;;;8.22;100.00;93218.84;2107039;28;20027;-84
2021/08/29 00:08:56;;;;;;;3.25;2.97;;;;;;;8.15;100.00;93213.59;2090297;28;20033;-88
2021/08/29 00:09:58;;;;;;;6.90;3.38;;;;;;;8.07;100.00;93217.47;2085134;28;20025;-85
2021/08/29 00:10:59;;;;;;;3.35;3.05;;;;;;;8.08;100.00;93225.06;2087820;28;20028;-87
2021/08/29 00:12:00;;;;;;;3.50;3.20;;;;;;;8.07;100.00;93220.13;2091004;28;20029;-84
2021/08/29 00:13:01;;;;;;;3.90;3.50;;;;;;;8.06;100.00;93213.31;2089996;28;20017;-87
2021/08/29 00:14:02;;;;;;;3.75;3.45;;;;;;;8.00;100.00;93214.91;2090924;28;20179;-86
2021/08/29 00:15:05;;;;;;;4.43;3.20;;;;;;;8.05;100.00;93209.13;2091306;28;20397;-86
2021/08/29 00:16:06;;;;;;;5.05;3.10;;;;;;;8.09;100.00;93215.19;2096702;28;20060;-88
2021/08/29 00:17:07;;;;;;;4.05;3.15;;;;;;;8.11;100.00;93207.53;2106264;28;20028;-87
2021/08/29 00:18:08;;;;;;;6.50;3.63;;;;;;;7.98;100.00;93199.31;2104145;28;20120;-85
2021/08/29 00:19:09;;;;;;;3.47;2.80;;;;;;;7.95;100.00;93202.03;2090927;28;20484;-86
2021/08/29 00:20:10;;;;;;;3.22;2.92;;;;;;;7.91;100.00;93201.31;2101134;28;20028;-86
2021/08/29 00:21:11;;;;;;;3.28;2.97;;;;;;;7.95;100.00;93204.69;2096051;28;20021;-88
2021/08/29 00:22:12;;;;;;;3.50;3.20;;;;;;;7.86;100.00;93199.84;2083295;28;20033;-87
2021/08/29 00:23:13;;;;;;;3.45;3.20;;;;;;;7.88;100.00;93191.44;2099097;28;20073;-87
2021/08/29 00:24:14;;;;;;;3.25;2.95;;;;;;;7.94;100.00;93197.84;2099429;28;20020;-88
2021/08/29 00:25:15;;;;;;;3.00;2.80;;;;;;;7.96;100.00;93198.22;2098291;28;20031;-86
2021/08/29 00:26:16;;;;;;;3.03;2.72;;;;;;;7.94;100.00;93198.59;2105483;28;20062;-84
2021/08/29 00:27:17;;;;;;;3.53;3.22;;;;;;;7.98;100.00;93193.97;2101845;28;20024;-85
2021/08/29 00:28:18;;;;;;;3.28;2.97;;;;;;;7.88;100.00;93197.53;2094714;28;20039;-84
2021/08/29 00:29:19;;;;;;;3.13;2.83;;;;;;;7.93;100.00;93197.09;2101666;28;20031;-87
2021/08/29 00:30:20;;;;;;;4.80;2.63;;;;;;;7.90;100.00;93199.78;2111205;27;20077;-86
2021/08/29 00:31:21;;;;;;;5.68;2.92;;;;;;;7.84;100.00;93196.78;2109827;27;20094;-88
2021/08/29 00:32:22;;;;;;;5.57;3.22;;;;;;;7.83;100.00;93192.63;2103732;28;20489;-84
2021/08/29 00:33:23;;;;;;;4.05;3.03;;;;;;;7.89;100.00;93185.72;2097451;28;20028;-87
2021/08/29 00:34:24;;;;;;;3.17;2.88;;;;;;;7.74;100.00;93189.69;2098754;28;20028;-87
2021/08/29 00:35:25;;;;;;;4.20;2.92;;;;;;;7.87;100.00;93193.34;2096698;28;20123;-84
2021/08/29 00:36:26;;;;;;;2.92;2.55;;;;;;;7.97;100.00;93189.06;2098286;28;20028;-85
2021/08/29 00:37:27;;;;;;;4.38;3.08;;;;;;;7.96;100.00;93184.91;2087359;28;20445;-87
2021/08/29 00:38:28;;;;;;;3.10;2.80;;;;;;;7.94;100.00;93187.19;2105270;28;20063;-84
2021/08/29 00:39:29;;;;;;;3.55;3.25;;;;;;;7.98;100.00;93190.56;2107020;28;20024;-86
2021/08/29 00:40:30;;;;;;;3.35;3.05;;;;;;;7.89;100.00;93192.94;2089544;28;20028;-87
2021/08/29 00:41:32;;;;;;;2.92;2.72;;;;;;;7.92;100.00;93194.81;2092692;28;20511;-85
2021/08/29 00:42:33;;;;;;;3.03;2.72;;;;;;;7.95;100.00;93194.78;2095545;28;20543;-85
2021/08/29 00:43:35;;;;;;;2.95;2.75;;;;;;;7.94;100.00;93193.25;2090405;28;20470;-87
2021/08/29 00:44:38;;;;;;;4.25;3.28;;;;;;;7.97;100.00;93195.13;2092757;28;20119;-86
2021/08/29 00:45:39;;;;;;;5.93;3.40;;;;;;;7.86;100.00;93202.50;2089751;28;20126;-87
2021/08/29 00:46:43;;;;;;;3.42;3.08;;;;;;;7.87;100.00;93203.25;2084767;28;20483;-87
2021/08/29 00:47:44;;;;;;;3.78;3.00;;;;;;;7.89;100.00;93206.25;2087899;28;20043;-88
2021/08/29 00:48:45;;;;;;;3.67;3.38;;;;;;;7.91;100.00;93207.38;2098482;28;20085;-84
2021/08/29 00:49:46;;;;;;;5.70;3.75;;;;;;;7.82;100.00;93204.44;2097400;28;20020;-86
2021/08/29 00:50:49;;;;;;;5.88;3.35;;;;;;;7.77;100.00;93212.81;2097451;28;20058;-86
2021/08/29 00:51:54;;;;;;;4.68;3.53;;;;;;;7.88;100.00;93207.41;2090342;28;20032;-86
2021/08/29 00:52:55;;;;;;;4.18;3.78;;;;;;;7.75;100.00;93213.22;2101203;27;20028;-86
2021/08/29 00:53:56;;;;;;;4.53;3.65;;;;;;;7.89;100.00;93204.34;2101183;28;20021;-87
2021/08/29 00:54:59;;;;;;;4.47;4.00;;;;;;;7.90;100.00;93199.78;2092882;28;20032;-87
2021/08/29 00:56:00;;;;;;;4.40;4.00;;;;;;;7.88;100.00;93197.53;2096000;28;20625;-86
2021/08/29 00:57:06;;;;;;;4.63;4.22;;;;;;;7.93;100.00;93199.00;2100601;28;20031;-87
2021/08/29 00:58:07;;;;;;;5.07;3.88;;;;;;;7.90;100.00;93200.56;2095806;28;20044;-85
2021/08/29 00:59:08;;;;;;;4.45;3.80;;;;;;;7.92;100.00;93203.56;2094174;28;20024;-87
2021/08/29 01:00:10;;;;;;;4.85;4.30;;;;;;;7.90;100.00;93195.22;2091774;28;20111;-89
2021/08/29 01:01:17;;;;;;;4.85;4.28;;;;;;;7.90;100.00;93199.78;2083890;28;20079;-86
2021/08/29 01:02:25;;;;;;;4.68;3.47;;;;;;;7.87;100.00;93198.69;2090490;28;20024;-87
2021/08/29 01:03:28;;;;;;;4.35;3.80;;;;;;;7.87;100.00;93192.59;2092614;27;20024;-86
2021/08/29 01:04:38;;;;;;;4.45;4.05;;;;;;;7.87;100.00;93192.59;2098699;28;20031;-87
2021/08/29 01:05:51;;;;;;;4.10;3.72;;;;;;;7.84;100.00;93194.13;2091090;28;20017;-87
2021/08/29 01:06:59;;;;;;;4.00;3.70;;;;;;;7.86;100.00;93191.06;2096142;28;20048;-86
2021/08/29 01:08:09;;;;;;;4.10;3.70;;;;;;;7.80;100.00;93196.06;2100927;28;20526;-85
2021/08/29 01:09:11;;;;;;;4.53;4.10;;;;;;;7.93;100.00;93191.75;2101676;28;20020;-84
2021/08/29 01:10:18;;;;;;;5.15;4.65;;;;;;;7.99;100.00;93200.06;2098283;28;20028;-88
2021/08/29 01:11:25;;;;;;;5.70;4.38;;;;;;;8.04;100.00;93202.31;2094690;28;20449;-86
2021/08/29 01:12:29;;;;;;;4.82;4.38;;;;;;;8.02;100.00;93201.94;2089832;28;20036;-87
2021/08/29 01:13:34;;;;;;;5.05;4.55;;;;;;;7.90;100.00;93202.44;2086489;28;20458;-89
2021/08/29 01:14:35;;;;;;;4.63;4.18;;;;;;;7.93;100.00;93199.00;2084882;28;20029;-85
2021/08/29 01:15:37;;;;;;;5.60;4.70;;;;;;;7.91;100.00;93194.06;2086425;28;20036;-88
2021/08/29 01:16:39;;;;;;;4.70;4.30;;;;;;;7.95;100.00;93194.78;2096393;28;20025;-87
2021/08/29 01:17:46;;;;;;;6.97;4.10;;;;;;;7.96;100.00;93190.97;2097320;28;20058;-86
2021/08/29 01:18:50;;;;;;;4.70;4.30;;;;;;;7.99;100.00;93192.84;2090674;28;20043;-87
2021/08/29 01:20:12;;;;;;;4.80;4.30;;;;;;;8.06;100.00;93190.09;2091438;28;20044;-88
2021/08/29 01:21:17;;;;;;;4.93;3.80;;;;;;;8.08;100.00;93197.69;2095798;28;20649;-87
2021/08/29 01:22:19;;;;;;;4.70;4.30;;;;;;;8.13;100.00;93191.19;2098307;28;20123;-87
2021/08/29 01:23:22;;;;;;;4.38;3.92;;;;;;;8.08;100.00;93195.03;2106103;28;20058;-88
2021/08/29 01:24:24;;;;;;;4.40;4.00;;;;;;;8.08;100.00;93193.13;2099736;28;20036;-85
2021/08/29 01:25:30;;;;;;;4.80;4.40;;;;;;;8.08;100.00;93190.47;2087775;28;20055;-88
2021/08/29 01:26:40;;;;;;;4.45;4.05;;;;;;;8.05;100.00;93188.59;2096039;27;20028;-84
2021/08/29 01:27:56;;;;;;;4.18;3.40;;;;;;;8.07;100.00;93196.91;2107810;28;20035;-85
2021/08/29 01:29:03;;;;;;;6.10;4.10;;;;;;;8.07;100.00;93194.25;2097829;28;20028;-87
2021/08/29 01:30:05;;;;;;;4.72;4.07;;;;;;;8.17;100.00;93197.22;2088938;28;20024;-84
2021/08/29 01:31:07;;;;;;;4.13;3.72;;;;;;;8.19;100.00;93194.91;2097716;28;20035;-87
2021/08/29 01:32:09;;;;;;;4.85;4.35;;;;;;;8.13;100.00;93193.84;2097583;28;20028;-86
2021/08/29 01:33:11;;;;;;;4.95;4.43;;;;;;;8.13;100.00;93194.59;2097811;28;20522;-91
2021/08/29 01:34:16;;;;;;;4.05;3.70;;;;;;;8.17;100.00;93191.91;2106839;28;20032;-87
2021/08/29 01:35:17;;;;;;;5.65;4.30;;;;;;;8.22;100.00;93197.53;2086056;28;20509;-88
2021/08/29 01:36:19;;;;;;;3.83;3.53;;;;;;;8.16;100.00;93193.03;2086126;28;20030;-84
2021/08/29 01:37:21;;;;;;;3.95;3.65;;;;;;;8.12;100.00;93187.78;2096311;28;20388;-86
2021/08/29 01:38:22;;;;;;;4.60;3.97;;;;;;;8.14;100.00;93180.13;2097534;28;20154;-90
2021/08/29 01:39:24;;;;;;;6.53;3.72;;;;;;;8.15;100.00;93181.63;2098773;28;20033;-85
2021/08/29 01:40:25;;;;;;;4.30;3.90;;;;;;;8.20;100.00;93178.53;2097492;28;20635;-88
2021/08/29 01:41:26;;;;;;;5.88;4.38;;;;;;;8.23;100.00;93183.06;2090084;28;20025;-89
2021/08/29 01:42:28;;;;;;;4.60;4.13;;;;;;;8.16;100.00;93182.38;2086255;28;20025;-88
2021/08/29 01:43:29;;;;;;;4.45;4.05;;;;;;;8.18;100.00;93186.16;2091595;28;20025;-87
2021/08/29 01:44:30;;;;;;;4.90;4.20;;;;;;;8.22;100.00;93178.91;2095259;28;20036;-86
2021/08/29 01:45:32;;;;;;;4.97;4.43;;;;;;;8.18;100.00;93188.81;2094626;28;20039;-90
2021/08/29 01:46:35;;;;;;;4.65;4.10;;;;;;;8.14;100.00;93188.13;2095390;28;20020;-87
2021/08/29 01:47:36;;;;;;;4.78;4.38;;;;;;;8.16;100.00;93187.72;2090294;28;20587;-87
2021/08/29 01:48:40;;;;;;;6.43;4.13;;;;;;;8.16;100.00;93187.72;2100722;28;20039;-86
2021/08/29 01:49:41;;;;;;;4.90;4.40;;;;;;;8.18;100.00;93193.41;2095175;28;20024;-87
2021/08/29 01:50:42;;;;;;;4.60;4.20;;;;;;;8.20;100.00;93194.50;2107148;28;20047;-85
2021/08/29 01:51:44;;;;;;;4.88;4.45;;;;;;;8.19;100.00;93192.25;2101463;28;20020;-87
2021/08/29 01:52:45;;;;;;;5.20;4.20;;;;;;;8.22;100.00;93194.13;2094790;28;20034;-85
2021/08/29 01:53:46;;;;;;;4.57;4.18;;;;;;;8.17;100.00;93190.00;2090103;28;20063;-84
2021/08/29 01:54:47;;;;;;;4.50;4.10;;;;;;;8.14;100.00;93190.78;2097412;28;20029;-85
2021/08/29 01:55:49;;;;;;;4.82;4.32;;;;;;;8.12;100.00;93187.00;2095581;28;20024;-84
2021/08/29 01:57:04;;;;;;;4.88;4.47;;;;;;;8.16;100.00;93182.38;2097740;28;20032;-89
2021/08/29 01:58:05;;;;;;;4.30;3.90;;;;;;;8.28;100.00;93187.19;2100644;28;20067;-87
2021/08/29 01:59:06;;;;;;;3.92;3.53;;;;;;;8.28;100.00;93184.53;2084235;28;20088;-86
2021/08/29 02:00:08;;;;;;;4.65;4.25;;;;;;;8.31;100.00;93187.16;2090242;28;20036;-87
2021/08/29 02:01:11;;;;;;;4.60;4.20;;;;;;;8.33;100.00;93184.06;2096859;28;20025;-85
2021/08/29 02:02:13;;;;;;;4.43;4.03;;;;;;;8.35;100.00;93181.78;2094358;28;20403;-88
2021/08/29 02:03:14;;;;;;;4.55;4.15;;;;;;;8.31;100.00;93175.75;2084941;28;20036;-87
2021/08/29 02:04:15;;;;;;;6.55;4.50;;;;;;;8.27;100.00;93175.78;2081561;28;20029;-84
2021/08/29 02:07:12;;;;;;;;;;;;;;;8.25;100.00;93174.66;2143208;27;20126;-86
2021/08/29 02:08:15;;;;;;;3.85;3.50;;;;;;;8.22;100.00;93170.16;2124533;27;19962;-83
2021/08/29 02:09:19;;;;;;;4.80;3.92;;;;;;;8.30;100.00;93172.34;2109876;27;20016;-85
2021/08/29 02:10:24;;;;;;;4.72;4.32;;;;;;;8.31;100.00;93176.50;2111256;27;20020;-89
2021/08/29 02:11:28;;;;;;;4.28;3.88;;;;;;;8.27;100.00;93175.78;2122641;27;20134;-88
2021/08/29 02:12:32;;;;;;;4.55;4.07;;;;;;;8.22;100.00;93176.22;2119965;27;20023;-84
2021/08/29 02:13:35;;;;;;;4.70;4.30;;;;;;;8.20;100.00;93172.44;2105000;27;20020;-86
2021/08/29 02:14:46;;;;;;;7.03;4.20;;;;;;;8.20;100.00;93175.09;2107903;28;20024;-85
2021/08/29 02:15:55;;;;;;;4.68;3.90;;;;;;;8.25;100.00;93175.44;2116633;27;20028;-85
2021/08/29 02:16:57;;;;;;;4.30;3.90;;;;;;;8.29;100.00;93170.81;2111748;27;20020;-87
2021/08/29 02:18:01;;;;;;;4.95;3.83;;;;;;;8.31;100.00;93170.44;2115891;28;20059;-85
2021/08/29 02:19:04;;;;;;;4.22;3.85;;;;;;;8.31;100.00;93173.84;2112629;27;20024;-88
2021/08/29 02:20:08;;;;;;;4.07;3.78;;;;;;;8.33;100.00;93162.78;2114234;28;20091;-84
2021/08/29 02:21:10;;;;;;;4.95;3.97;;;;;;;8.33;100.00;93170.75;2105835;28;20075;-86
2021/08/29 02:22:11;;;;;;;4.22;3.83;;;;;;;8.32;100.00;93164.69;2113567;27;20055;-86
2021/08/29 02:23:15;;;;;;;8.02;4.63;;;;;;;8.32;100.00;93164.69;2125328;27;20129;-87
2021/08/29 02:24:17;;;;;;;4.28;3.90;;;;;;;8.33;100.00;93160.88;2101334;28;20028;-85
2021/08/29 02:25:18;;;;;;;4.80;4.40;;;;;;;8.26;100.00;93160.97;2115287;28;20058;-84
2021/08/29 02:26:23;;;;;;;4.95;4.35;;;;;;;8.27;100.00;93161.72;2110550;28;20353;-85
2021/08/29 02:27:24;;;;;;;4.82;4.43;;;;;;;8.26;100.00;93171.63;2106104;28;20643;-86
2021/08/29 02:28:28;;;;;;;4.65;4.20;;;;;;;8.31;100.00;93163.19;2096746;28;20032;-85
2021/08/29 02:29:29;;;;;;;4.70;4.30;;;;;;;8.35;100.00;93159.72;2098366;28;20035;-85
2021/08/29 02:30:30;;;;;;;5.32;4.40;;;;;;;8.30;100.00;93155.59;2115863;28;20023;-86
2021/08/29 02:31:31;;;;;;;7.20;5.35;;;;;;;8.26;100.00;93160.22;2109723;28;20028;-88
2021/08/29 02:32:37;;;;;;;4.60;4.15;;;;;;;8.23;100.00;93155.69;2095143;28;20493;-84
2021/08/29 02:33:38;;;;;;;4.40;4.00;;;;;;;8.28;100.00;93147.25;2114191;27;20047;-85
2021/08/29 02:34:39;;;;;;;4.43;4.03;;;;;;;8.29;100.00;93154.06;2113150;28;20499;-86
2021/08/29 02:35:42;;;;;;;4.82;4.40;;;;;;;8.26;100.00;93149.56;2100800;28;20039;-83
2021/08/29 02:36:45;;;;;;;4.18;3.88;;;;;;;8.29;100.00;93146.09;2099989;28;20076;-87
2021/08/29 02:37:48;;;;;;;5.25;4.57;;;;;;;8.24;100.00;93152.63;2116825;27;20099;-86
2021/08/29 02:38:52;;;;;;;5.78;4.57;;;;;;;8.31;100.00;93149.13;2114406;28;20020;-83
2021/08/29 02:39:56;;;;;;;4.50;4.10;;;;;;;8.38;100.00;93150.94;2096877;28;20086;-86
2021/08/29 02:40:58;;;;;;;4.55;4.15;;;;;;;8.39;100.00;93153.22;2098227;28;20023;-85
2021/08/29 02:42:01;;;;;;;4.38;4.05;;;;;;;8.39;100.00;93155.91;2108048;28;20545;-83
2021/08/29 02:43:02;;;;;;;4.43;4.03;;;;;;;8.41;100.00;93150.16;2116029;28;20022;-82
2021/08/29 02:44:05;;;;;;;5.68;4.40;;;;;;;8.37;100.00;93146.78;2124561;27;20113;-84
2021/08/29 02:45:09;;;;;;;4.40;3.95;;;;;;;8.38;100.00;93150.94;2118218;28;20030;-83
2021/08/29 02:46:11;;;;;;;4.00;3.60;;;;;;;8.29;100.00;93144.16;2097006;28;20024;-86
2021/08/29 02:47:13;;;;;;;5.50;3.83;;;;;;;8.34;100.00;93145.66;2104128;28;20051;-88
2021/08/29 02:48:16;;;;;;;4.63;4.22;;;;;;;8.37;100.00;93136.13;2104220;28;20059;-84
2021/08/29 02:49:23;;;;;;;4.68;3.90;;;;;;;8.33;100.00;93149.47;2105985;28;20020;-85
2021/08/29 02:50:24;;;;;;;4.00;3.60;;;;;;;8.34;100.00;93151.00;2098856;28;20354;-87
2021/08/29 02:51:25;;;;;;;4.65;4.05;;;;;;;8.31;100.00;93147.22;2103288;28;20078;-84
2021/08/29 02:52:27;;;;;;;5.82;4.28;;;;;;;8.35;100.00;93143.75;2113449;28;20110;-84
2021/08/29 02:53:28;;;;;;;4.18;3.78;;;;;;;8.35;100.00;93141.09;2096881;28;20424;-87
2021/08/29 02:54:29;;;;;;;4.20;3.80;;;;;;;8.33;100.00;93141.47;2105768;28;20031;-86
2021/08/29 02:55:31;;;;;;;4.00;3.70;;;;;;;8.30;100.00;93140.38;2125929;27;20353;-83
2021/08/29 02:56:33;;;;;;;4.22;3.83;;;;;;;8.35;100.00;93146.41;2126678;27;20019;-85
2021/08/29 02:57:35;;;;;;;4.65;4.25;;;;;;;8.38;100.00;93143.72;2109325;28;20395;-85
2021/08/29 02:58:38;;;;;;;5.05;3.85;;;;;;;8.42;100.00;93136.44;2094497;28;20492;-87
2021/08/29 02:59:39;;;;;;;4.68;4.28;;;;;;;8.44;100.00;93134.13;2106211;27;20460;-85
2021/08/29 03:00:40;;;;;;;4.07;3.70;;;;;;;8.45;100.00;93135.63;2114116;28;20023;-83
2021/08/29 03:01:41;;;;;;;5.10;4.13;;;;;;;8.45;100.00;93135.63;2097905;28;20060;-86
2021/08/29 03:02:43;;;;;;;4.05;3.63;;;;;;;8.40;100.00;93133.44;2097735;28;20449;-86
2021/08/29 03:03:44;;;;;;;4.70;4.30;;;;;;;8.41;100.00;93137.59;2092567;28;20040;-84
2021/08/29 03:04:45;;;;;;;4.65;3.78;;;;;;;8.44;100.00;93128.81;2111472;28;20023;-83
2021/08/29 03:05:46;;;;;;;4.15;3.75;;;;;;;8.37;100.00;93128.16;2109399;28;20020;-84
2021/08/29 03:06:47;;;;;;;4.15;3.65;;;;;;;8.35;100.00;93127.78;2113183;28;20119;-85
2021/08/29 03:07:48;;;;;;;4.65;4.00;;;;;;;8.33;100.00;93128.91;2105668;28;20027;-85
2021/08/29 03:08:49;;;;;;;4.80;4.30;;;;;;;8.39;100.00;93126.59;2095657;28;20025;-83
2021/08/29 03:09:50;;;;;;;4.15;3.75;;;;;;;8.41;100.00;93129.59;2111355;28;20028;-85
2021/08/29 03:10:51;;;;;;;5.03;3.90;;;;;;;8.44;100.00;93136.81;2113570;28;20523;-84
2021/08/29 03:11:53;;;;;;;4.80;3.85;;;;;;;8.44;100.00;93128.06;2113688;27;20031;-85
2021/08/29 03:12:54;;;;;;;4.18;3.78;;;;;;;8.50;100.00;93126.44;2103493;28;20035;-85
2021/08/29 03:13:56;;;;;;;7.13;5.60;;;;;;;8.46;100.00;93128.41;2112751;27;20083;-85
2021/08/29 03:14:57;;;;;;;4.85;3.92;;;;;;;8.41;100.00;93124.28;2110240;28;20020;-87
2021/08/29 03:15:59;;;;;;;3.25;3.03;;;;;;;8.48;100.00;93120.78;2100280;28;20465;-82
2021/08/29 03:17:00;;;;;;;3.90;3.55;;;;;;;8.43;100.00;93127.31;2113467;28;20065;-86
2021/08/29 03:18:02;;;;;;;6.07;3.72;;;;;;;8.48;100.00;93118.88;2110100;28;20038;-84
2021/08/29 03:19:04;;;;;;;4.45;3.85;;;;;;;8.49;100.00;93125.69;2093422;28;20495;-83
2021/08/29 03:20:08;;;;;;;4.07;3.67;;;;;;;8.54;100.00;93121.81;2092048;28;20025;-83
2021/08/29 03:21:09;;;;;;;5.03;4.53;;;;;;;8.55;100.00;93121.41;2092173;28;20040;-86
2021/08/29 03:22:11;;;;;;;4.15;3.75;;;;;;;8.52;100.00;93114.25;2092216;28;20048;-84
2021/08/29 03:23:12;;;;;;;5.38;4.13;;;;;;;8.55;100.00;93124.06;2099692;28;20024;-82
2021/08/29 03:24:14;;;;;;;5.03;4.35;;;;;;;8.53;100.00;93122.97;2094898;28;20542;-85
2021/08/29 03:25:15;;;;;;;4.50;4.10;;;;;;;8.50;100.00;93121.88;2096312;28;20503;-87
2021/08/29 03:26:16;;;;;;;4.15;3.75;;;;;;;8.48;100.00;93123.44;2097480;28;20027;-82
2021/08/29 03:27:18;;;;;;;3.90;3.60;;;;;;;8.53;100.00;93118.41;2100471;28;20020;-83
2021/08/29 03:28:19;;;;;;;4.18;3.70;;;;;;;8.52;100.00;93129.47;2102859;28;20057;-86
2021/08/29 03:29:20;;;;;;;6.50;4.00;;;;;;;8.52;100.00;93129.47;2104469;27;20145;-86
2021/08/29 03:30:21;;;;;;;5.03;3.60;;;;;;;8.53;100.00;93122.97;2108361;28;20488;-84
2021/08/29 03:31:22;;;;;;;3.78;3.47;;;;;;;8.49;100.00;93119.63;2100456;28;20114;-83
2021/08/29 03:32:24;;;;;;;3.78;3.47;;;;;;;8.48;100.00;93123.44;2106503;28;20496;-83
2021/08/29 03:33:26;;;;;;;3.88;3.58;;;;;;;8.50;100.00;93115.78;2099260;28;20457;-85
2021/08/29 03:34:28;;;;;;;3.75;3.45;;;;;;;8.50;100.00;93121.88;2110737;27;20031;-83
2021/08/29 03:35:29;;;;;;;3.88;3.53;;;;;;;8.54;100.00;93121.81;2112428;28;20118;-85
2021/08/29 03:36:32;;;;;;;7.65;6.80;;;;;;;8.48;100.00;93124.19;2101083;28;20016;-83
2021/08/29 03:37:33;;;;;;;6.35;5.75;;;;;;;8.51;100.00;93112.72;2098323;28;20051;-83
2021/08/29 03:38:35;;;;;;;4.80;4.18;;;;;;;8.48;100.00;93113.53;2092397;28;20489;-84
2021/08/29 03:39:36;;;;;;;5.03;4.53;;;;;;;8.54;100.00;93117.25;2087433;28;20524;-87
2021/08/29 03:40:40;;;;;;;5.00;4.25;;;;;;;8.61;100.00;93111.06;2106547;27;20028;-86
2021/08/29 03:41:43;;;;;;;4.55;4.15;;;;;;;8.56;100.00;93109.63;2117408;27;20023;-86
2021/08/29 03:42:46;;;;;;;6.18;4.35;;;;;;;8.58;100.00;93115.28;2116645;27;20028;-83
2021/08/29 03:43:47;;;;;;;5.25;4.35;;;;;;;8.61;100.00;93110.31;2114966;27;20414;-88
2021/08/29 03:44:48;;;;;;;8.23;4.20;;;;;;;8.61;100.00;93115.66;2101100;28;20556;-87
2021/08/29 03:45:50;;;;;;;5.43;4.28;;;;;;;8.61;100.00;93115.66;2089576;28;20024;-86
2021/08/29 03:46:52;;;;;;;4.30;3.90;;;;;;;8.56;100.00;93116.88;2108744;27;20418;-88
2021/08/29 03:47:53;;;;;;;4.10;3.72;;;;;;;8.63;100.00;93116.00;2106774;28;20506;-83
2021/08/29 03:48:54;;;;;;;4.85;3.80;;;;;;;8.65;100.00;93121.66;2107958;28;20081;-83
2021/08/29 03:49:56;;;;;;;3.88;3.58;;;;;;;8.61;100.00;93113.75;2099222;28;20021;-84
2021/08/29 03:50:57;;;;;;;4.93;4.28;;;;;;;8.64;100.00;93114.81;2102418;28;20028;-84
2021/08/29 03:52:00;;;;;;;4.43;3.67;;;;;;;8.64;100.00;93114.81;2100302;28;20471;-86
2021/08/29 03:53:02;;;;;;;4.60;4.20;;;;;;;8.68;100.00;93115.53;2102524;28;20028;-85
2021/08/29 03:54:04;;;;;;;4.43;4.03;;;;;;;8.66;100.00;93115.94;2106159;28;20047;-87
2021/08/29 03:55:07;;;;;;;5.18;3.90;;;;;;;8.62;100.00;93117.91;2106727;28;20026;-86
2021/08/29 03:56:10;;;;;;;4.70;4.20;;;;;;;8.62;100.00;93115.25;2090169;28;20517;-84
2021/08/29 03:57:11;;;;;;;4.68;4.22;;;;;;;8.64;100.00;93117.50;2089025;28;20025;-85
2021/08/29 03:58:12;;;;;;;5.20;4.30;;;;;;;8.64;100.00;93110.25;2092412;28;20029;-86
2021/08/29 03:59:13;;;;;;;4.88;4.43;;;;;;;8.63;100.00;93119.41;2093660;28;20028;-86
2021/08/29 04:00:14;;;;;;;4.70;4.25;;;;;;;8.64;100.00;93115.56;2093769;28;20385;-87
2021/08/29 04:01:15;;;;;;;4.82;4.35;;;;;;;8.69;100.00;93111.72;2100639;28;20032;-82
2021/08/29 04:02:16;;;;;;;4.22;3.58;;;;;;;8.71;100.00;93114.72;2093809;28;20067;-85
2021/08/29 04:03:18;;;;;;;4.55;4.15;;;;;;;8.72;100.00;93113.56;2104143;28;20127;-86
2021/08/29 04:04:19;;;;;;;4.72;4.28;;;;;;;8.77;100.00;93116.53;2099098;28;20032;-83
2021/08/29 04:05:20;;;;;;;5.07;4.07;;;;;;;8.75;100.00;93112.78;2097045;28;20024;-88
2021/08/29 04:06:22;;;;;;;4.82;4.28;;;;;;;8.72;100.00;93114.31;2091530;28;20171;-85
2021/08/29 04:07:26;;;;;;;4.38;3.97;;;;;;;8.72;100.00;93110.91;2097364;28;20036;-87
2021/08/29 04:08:31;;;;;;;4.60;4.20;;;;;;;8.74;100.00;93111.28;2107507;28;20031;-84
2021/08/29 04:09:33;;;;;;;4.10;3.75;;;;;;;8.72;100.00;93113.56;2109458;28;20050;-85
2021/08/29 04:10:36;;;;;;;4.85;4.25;;;;;;;8.71;100.00;93109.41;2105658;28;20032;-84
2021/08/29 04:11:41;;;;;;;5.05;4.55;;;;;;;8.72;100.00;93110.91;2091356;28;20028;-84
2021/08/29 04:12:42;;;;;;;4.97;4.38;;;;;;;8.70;100.00;93111.31;2107063;28;20458;-84
2021/08/29 04:13:43;;;;;;;6.72;4.97;;;;;;;8.70;100.00;93113.97;2106551;28;20639;-85
2021/08/29 04:14:46;;;;;;;6.03;5.53;;;;;;;8.70;100.00;93110.56;2098577;28;20081;-84
2021/08/29 04:15:48;;;;;;;5.25;4.75;;;;;;;8.68;100.00;93108.28;2094262;28;20035;-84
2021/08/29 04:16:50;;;;;;;4.82;4.25;;;;;;;8.70;100.00;93111.31;2102557;28;20032;-88
2021/08/29 04:17:51;;;;;;;4.72;4.28;;;;;;;8.70;100.00;93105.25;2106304;28;20030;-86
2021/08/29 04:18:53;;;;;;;4.72;4.30;;;;;;;8.73;100.00;93109.75;2109412;28;20114;-86
2021/08/29 04:19:54;;;;;;;4.60;4.25;;;;;;;8.75;100.00;93115.44;2090921;28;20031;-84
2021/08/29 04:20:55;;;;;;;5.93;4.28;;;;;;;8.75;100.00;93110.84;2088774;28;20021;-83
2021/08/29 04:21:57;;;;;;;5.10;4.30;;;;;;;8.82;100.00;93117.97;2090433;28;20132;-83
2021/08/29 04:22:58;;;;;;;4.57;4.18;;;;;;;8.81;100.00;93108.47;2091634;28;20024;-84
2021/08/29 04:23:59;;;;;;;4.65;4.15;;;;;;;8.78;100.00;93117.28;2098893;28;20115;-83
2021/08/29 04:25:00;;;;;;;5.40;4.72;;;;;;;8.76;100.00;93111.59;2104970;28;20409;-86
2021/08/29 04:26:01;;;;;;;4.82;4.32;;;;;;;8.82;100.00;93104.66;2109867;28;20034;-88
2021/08/29 04:27:03;;;;;;;4.80;4.35;;;;;;;8.83;100.00;93106.94;2107648;28;20046;-87
2021/08/29 04:28:04;;;;;;;4.95;4.47;;;;;;;8.84;100.00;93105.03;2106703;28;20046;-87
2021/08/29 04:29:05;;;;;;;4.57;4.18;;;;;;;8.78;100.00;93104.72;2105498;28;20323;-85
2021/08/29 04:30:07;;;;;;;5.10;4.60;;;;;;;8.80;100.00;93106.97;2100450;28;20215;-86
2021/08/29 04:31:10;;;;;;;5.88;4.47;;;;;;;8.85;100.00;93109.19;2097109;28;20028;-83
2021/08/29 04:32:13;;;;;;;4.75;4.25;;;;;;;8.88;100.00;93105.72;2091387;28;20021;-83
2021/08/29 04:33:14;;;;;;;4.90;4.40;;;;;;;8.88;100.00;93108.38;2094508;28;20151;-89
2021/08/29 04:34:15;;;;;;;5.22;4.72;;;;;;;8.87;100.00;93109.53;2093257;28;20086;-83
2021/08/29 04:35:16;;;;;;;5.15;4.65;;;;;;;8.83;100.00;93112.25;2109233;27;20605;-84
2021/08/29 04:36:17;;;;;;;5.15;4.65;;;;;;;8.87;100.00;93114.88;2109997;28;20019;-83
2021/08/29 04:37:18;;;;;;;5.63;5.05;;;;;;;8.89;100.00;93117.13;2088661;28;20475;-84
2021/08/29 04:38:19;;;;;;;6.97;5.15;;;;;;;8.95;100.00;93115.50;2110033;28;20024;-84
2021/08/29 04:39:21;;;;;;;5.25;4.68;;;;;;;8.94;100.00;93122.00;2098961;28;20547;-83
2021/08/29 04:40:21;;;;;;;5.88;4.95;;;;;;;8.94;100.00;93106.75;2098811;28;20085;-83
2021/08/29 04:41:22;;;;;;;6.20;4.72;;;;;;;8.91;100.00;93112.13;2106683;28;20460;-87
2021/08/29 04:42:23;;;;;;;5.18;4.68;;;;;;;8.85;100.00;93109.19;2097999;28;20563;-85
2021/08/29 04:43:24;;;;;;;6.15;5.50;;;;;;;8.82;100.00;93110.75;2100982;28;20040;-86
2021/08/29 04:44:25;;;;;;;6.05;5.22;;;;;;;8.87;100.00;93106.88;2106670;28;20024;-85
2021/08/29 04:45:26;;;;;;;6.95;5.20;;;;;;;8.91;100.00;93106.81;2114587;27;20051;-84
2021/08/29 04:46:28;;;;;;;5.93;4.95;;;;;;;8.89;100.00;93106.47;2117380;27;20452;-84
2021/08/29 04:47:29;;;;;;;5.38;4.88;;;;;;;8.89;100.00;93106.47;2097252;28;20024;-85
2021/08/29 04:48:30;;;;;;;6.32;5.13;;;;;;;8.89;100.00;93104.56;2090022;28;20036;-86
2021/08/29 04:49:31;;;;;;;5.57;5.07;;;;;;;8.90;100.00;93097.31;2096269;28;20083;-85
2021/08/29 04:50:32;;;;;;;6.05;5.45;;;;;;;8.82;100.00;93099.31;2109223;28;20052;-85
2021/08/29 04:51:33;;;;;;;6.05;4.70;;;;;;;8.97;100.00;93103.28;2106867;28;20027;-88
2021/08/29 04:52:34;;;;;;;6.45;5.70;;;;;;;8.95;100.00;93107.50;2107322;28;20115;-86
2021/08/29 04:53:35;;;;;;;5.35;4.85;;;;;;;8.99;100.00;93106.28;2105316;28;20205;-87
2021/08/29 04:54:36;;;;;;;5.60;4.55;;;;;;;9.10;100.00;93105.38;2106689;28;20110;-84
2021/08/29 04:55:37;;;;;;;6.13;5.25;;;;;;;9.02;100.00;93110.06;2093286;28;20049;-85